Terminal Aerodrome Forecast
Issued by NWS Goodland, KS

Home | Current Version | Previous Version | Text Only | Print | Product List | Glossary On
Versions: 1 2 3 4 5 6 7 8 9 10 11 12 13 14
000
FTUS43 KGLD 300523
TAFGLD
TAF
KGLD 300523Z 3006/3106 01009KT P6SM SCT010 BKN017
     FM301000 36008KT P6SM OVC010
     FM301300 01007KT P6SM BKN015
     FM301500 02007KT P6SM BKN040
     FM301800 06005KT P6SM SCT200
     FM302200 13007KT P6SM FEW250=

USA.gov is the U.S. government's official web portal to all federal, state and local government web resources and services.